createdAt,value
2022-09-15T00:04:59.266Z,14.68
2022-09-15T00:10:03.884Z,14.60
2022-09-15T00:15:08.337Z,14.52
2022-09-15T00:20:11.739Z,14.52
2022-09-15T00:25:16.056Z,14.55
2022-09-15T00:30:19.512Z,14.60
2022-09-15T00:35:22.801Z,14.61
2022-09-15T00:40:27.790Z,14.57
2022-09-15T00:45:31.239Z,14.50
2022-09-15T00:50:38.090Z,14.45
2022-09-15T00:55:48.918Z,14.39
2022-09-15T01:01:04.206Z,14.34
2022-09-15T01:06:21.306Z,14.34
2022-09-15T01:11:25.045Z,14.39
2022-09-15T01:17:16.474Z,14.44
2022-09-15T01:23:10.840Z,14.42
2022-09-15T01:28:36.194Z,14.33
2022-09-15T01:33:50.034Z,14.27
2022-09-15T01:39:17.282Z,14.20
2022-09-15T01:44:28.788Z,14.21
2022-09-15T01:49:59.956Z,14.29
2022-09-15T01:55:14.754Z,14.34
2022-09-15T02:00:18.917Z,14.35
2022-09-15T02:05:40.236Z,14.30
2022-09-15T02:11:17.013Z,14.22
2022-09-15T02:16:29.687Z,14.18
2022-09-15T02:22:16.888Z,14.16
2022-09-15T02:27:25.374Z,14.19
2022-09-15T02:32:31.053Z,14.21
2022-09-15T02:37:37.593Z,14.23
2022-09-15T02:42:42.762Z,14.23
2022-09-15T02:47:46.568Z,14.21
2022-09-15T02:52:49.888Z,14.18
2022-09-15T02:57:53.283Z,14.10
2022-09-15T03:02:57.262Z,14.08
2022-09-15T03:08:00.818Z,14.09
2022-09-15T03:13:04.232Z,14.10
2022-09-15T03:18:07.670Z,14.13
2022-09-15T03:23:11.262Z,14.13
2022-09-15T03:28:14.778Z,14.10
2022-09-15T03:33:18.090Z,14.07
2022-09-15T03:38:22.472Z,14.03
2022-09-15T03:43:27.249Z,14.04
2022-09-15T03:48:35.712Z,14.08
2022-09-15T03:53:42.026Z,14.11
2022-09-15T03:58:45.675Z,14.13
2022-09-15T04:03:51.364Z,14.03
2022-09-15T04:08:56.281Z,13.90
2022-09-15T04:14:00.028Z,13.73
2022-09-15T04:19:04.073Z,13.59
2022-09-15T04:24:07.487Z,13.51
2022-09-15T04:29:17.816Z,13.46
2022-09-15T04:34:21.281Z,13.43
2022-09-15T04:39:25.745Z,13.38
2022-09-15T04:44:29.441Z,13.30
2022-09-15T04:49:32.851Z,13.26
2022-09-15T04:54:36.266Z,13.29
2022-09-15T04:59:39.892Z,13.40
2022-09-15T05:04:44.424Z,13.53
2022-09-15T05:09:47.845Z,13.63
2022-09-15T05:14:51.252Z,13.67
2022-09-15T05:19:54.765Z,13.68
2022-09-15T05:24:58.131Z,13.71
2022-09-15T05:30:25.208Z,13.82
2022-09-15T05:35:24.981Z,13.93
2022-09-15T05:40:28.320Z,13.97
2022-09-15T05:45:31.907Z,13.91
2022-09-15T05:50:35.453Z,13.79
2022-09-15T05:55:39.559Z,13.77
2022-09-15T06:00:43.488Z,13.82
2022-09-15T06:05:48.236Z,13.85
2022-09-15T06:10:51.535Z,13.92
2022-09-15T06:15:55.077Z,14.11
2022-09-15T06:21:03.377Z,14.29
2022-09-15T06:26:18.987Z,14.48
2022-09-15T06:31:24.054Z,14.57
2022-09-15T06:36:31.238Z,14.63
2022-09-15T06:41:58.773Z,14.81
2022-09-15T06:46:59.345Z,15.02
2022-09-15T06:52:03.246Z,15.12
2022-09-15T06:57:07.460Z,15.26
2022-09-15T07:02:10.944Z,15.34
2022-09-15T07:07:14.860Z,15.29
2022-09-15T07:12:18.422Z,15.31
2022-09-15T07:17:21.900Z,15.41
2022-09-15T07:22:25.310Z,15.54
2022-09-15T07:27:31.881Z,15.62
2022-09-15T07:32:35.416Z,15.74
2022-09-15T07:37:39.132Z,15.80
2022-09-15T07:42:44.510Z,15.89
2022-09-15T07:47:47.854Z,16.07
2022-09-15T07:52:51.230Z,16.27
2022-09-15T07:58:01.491Z,16.43
2022-09-15T08:03:04.904Z,16.51
2022-09-15T08:08:08.737Z,16.62
2022-09-15T08:13:12.119Z,16.77
2022-09-15T08:18:16.124Z,17.00
2022-09-15T08:23:19.437Z,17.42
2022-09-15T08:28:22.796Z,17.79
2022-09-15T08:33:26.418Z,17.88
2022-09-15T08:38:30.029Z,18.01
2022-09-15T08:43:46.270Z,18.15
2022-09-15T08:49:35.509Z,18.12
2022-09-15T08:54:42.428Z,18.10
2022-09-15T08:59:45.987Z,17.98
2022-09-15T09:05:06.970Z,18.32
2022-09-15T09:10:45.816Z,18.59
2022-09-15T09:16:01.587Z,18.72
2022-09-15T09:21:23.977Z,18.75
2022-09-15T09:26:32.323Z,18.75
2022-09-15T09:31:37.157Z,18.89
2022-09-15T09:36:40.775Z,18.95
2022-09-15T09:41:45.155Z,18.96
2022-09-15T09:46:52.181Z,18.86
2022-09-15T09:52:00.178Z,18.64
2022-09-15T09:57:32.833Z,18.54
2022-09-15T10:02:47.871Z,18.38
2022-09-15T10:07:51.438Z,18.20
2022-09-15T10:13:02.424Z,18.24
2022-09-15T10:18:06.055Z,18.47
2022-09-15T10:23:31.741Z,18.45
2022-09-15T10:28:35.502Z,18.28
2022-09-15T10:33:42.858Z,18.24
2022-09-15T10:39:02.809Z,18.18
2022-09-15T10:44:39.605Z,18.09
2022-09-15T10:49:53.467Z,18.08
2022-09-15T10:55:08.756Z,18.12
2022-09-15T11:00:24.962Z,18.29
2022-09-15T11:06:19.172Z,18.50
2022-09-15T11:12:01.500Z,18.64
2022-09-15T11:17:31.438Z,18.57
2022-09-15T11:22:49.581Z,18.56
2022-09-15T11:28:14.615Z,18.64
2022-09-15T11:33:26.634Z,18.83
2022-09-15T11:38:39.394Z,18.68
2022-09-15T11:44:34.386Z,18.60
2022-09-15T11:49:50.087Z,18.69
2022-09-15T11:55:12.445Z,18.87
2022-09-15T12:00:17.169Z,19.17
2022-09-15T12:05:33.353Z,19.20
2022-09-15T12:10:49.345Z,19.23
2022-09-15T12:15:53.720Z,19.22
2022-09-15T12:21:30.545Z,19.02
2022-09-15T12:26:34.905Z,19.04
2022-09-15T12:31:40.482Z,19.01
2022-09-15T12:36:53.821Z,18.88
2022-09-15T12:42:12.464Z,19.05
2022-09-15T12:47:42.624Z,19.26
2022-09-15T12:53:12.960Z,19.42
2022-09-15T12:59:03.261Z,19.45
2022-09-15T13:04:24.295Z,19.45
2022-09-15T13:09:28.728Z,19.52
2022-09-15T13:14:45.351Z,19.45
2022-09-15T13:19:54.715Z,19.37
2022-09-15T13:25:13.989Z,19.49
2022-09-15T13:30:44.791Z,19.62
2022-09-15T13:38:03.345Z,19.49
2022-09-15T13:42:20.797Z,19.56
2022-09-15T13:48:13.969Z,19.62
2022-09-15T13:54:12.805Z,19.50
2022-09-15T13:59:24.677Z,19.39
2022-09-15T14:04:31.877Z,19.22
2022-09-15T14:09:46.860Z,19.08
2022-09-15T14:14:54.358Z,19.08
2022-09-15T14:20:01.263Z,19.00
2022-09-15T14:25:17.068Z,18.53
2022-09-15T14:30:32.313Z,17.91
2022-09-15T14:35:38.923Z,17.44
2022-09-15T14:40:42.427Z,17.20
2022-09-15T14:45:57.437Z,17.10
2022-09-15T14:51:13.770Z,16.92
2022-09-15T14:56:24.709Z,16.82
2022-09-15T15:02:20.391Z,16.86
2022-09-15T15:07:32.306Z,16.86
2022-09-15T15:12:44.437Z,16.77
2022-09-15T15:17:51.945Z,16.60
2022-09-15T15:23:25.149Z,16.42
2022-09-15T15:28:38.049Z,16.34
2022-09-15T15:34:05.668Z,16.39
2022-09-15T15:39:25.326Z,16.44
2022-09-15T15:44:31.335Z,16.41
2022-09-15T15:49:42.335Z,16.29
2022-09-15T15:54:54.346Z,16.21
2022-09-15T16:00:00.869Z,16.16
2022-09-15T16:05:05.435Z,16.14
2022-09-15T16:10:16.466Z,16.12
2022-09-15T16:15:21.840Z,16.08
2022-09-15T16:20:25.336Z,16.03
2022-09-15T16:25:56.625Z,15.99
2022-09-15T16:31:00.209Z,15.95
2022-09-15T16:36:07.168Z,15.89
2022-09-15T16:41:17.817Z,15.86
2022-09-15T16:46:22.047Z,15.83
2022-09-15T16:51:30.860Z,15.74
2022-09-15T16:56:35.318Z,15.62
2022-09-15T17:01:40.003Z,15.47
2022-09-15T17:06:44.089Z,15.37
2022-09-15T17:11:48.119Z,15.35
2022-09-15T17:16:53.143Z,15.36
2022-09-15T17:21:56.481Z,15.36
2022-09-15T17:26:59.793Z,15.30
2022-09-15T17:32:03.107Z,15.22
2022-09-15T17:37:06.412Z,15.11
2022-09-15T17:42:10.150Z,14.97
2022-09-15T17:47:13.444Z,14.84
2022-09-15T17:52:17.065Z,14.71
2022-09-15T17:57:20.350Z,14.58
2022-09-15T18:02:23.759Z,14.45
2022-09-15T18:07:27.210Z,14.34
2022-09-15T18:12:30.510Z,14.23
2022-09-15T18:17:33.965Z,14.12
2022-09-15T18:22:37.246Z,14.02
2022-09-15T18:27:40.758Z,13.91
2022-09-15T18:32:44.872Z,13.80
2022-09-15T18:37:54.036Z,13.69
2022-09-15T18:42:57.655Z,13.57
2022-09-15T18:48:01.578Z,13.50
2022-09-15T18:53:06.204Z,13.44
2022-09-15T18:58:11.106Z,13.41
2022-09-15T19:03:14.892Z,13.38
2022-09-15T19:08:18.417Z,13.33
2022-09-15T19:13:21.724Z,13.27
2022-09-15T19:18:25.135Z,13.20
2022-09-15T19:23:28.445Z,13.10
2022-09-15T19:28:32.509Z,13.00
2022-09-15T19:33:36.091Z,12.91
2022-09-15T19:38:39.435Z,12.85
2022-09-15T19:43:43.270Z,12.85
2022-09-15T19:48:47.968Z,12.85
2022-09-15T19:53:56.117Z,12.81
2022-09-15T19:58:59.919Z,12.75
2022-09-15T20:09:24.592Z,12.59
2022-09-15T20:14:27.876Z,12.57
2022-09-15T20:19:31.250Z,12.55
2022-09-15T20:24:34.553Z,12.51
2022-09-15T20:29:39.001Z,12.44
2022-09-15T20:34:42.305Z,12.38
2022-09-15T20:39:48.793Z,12.36
2022-09-15T20:44:52.151Z,12.31
2022-09-15T20:49:55.766Z,12.27
2022-09-15T20:54:59.078Z,12.21
2022-09-15T21:00:05.163Z,12.22
2022-09-15T21:05:09.612Z,12.19
2022-09-15T21:10:12.865Z,12.15
2022-09-15T21:15:16.644Z,12.08
2022-09-15T21:20:19.876Z,12.05
2022-09-15T21:25:24.270Z,12.02
2022-09-15T21:30:27.589Z,11.98
2022-09-15T21:35:32.609Z,11.96
2022-09-15T21:40:37.079Z,11.96
2022-09-15T21:45:40.408Z,11.90
2022-09-15T21:50:54.255Z,11.78
2022-09-15T21:56:05.815Z,11.66
2022-09-15T22:01:13.532Z,11.62
2022-09-15T22:06:17.182Z,11.61
2022-09-15T22:11:21.311Z,11.61
2022-09-15T22:16:26.404Z,11.54
2022-09-15T22:21:32.814Z,11.49
2022-09-15T22:26:38.723Z,11.53
2022-09-15T22:31:42.425Z,11.64
2022-09-15T22:36:46.061Z,11.73
2022-09-15T22:41:49.715Z,11.82
2022-09-15T22:46:53.051Z,11.92
2022-09-15T22:51:56.298Z,11.98
2022-09-15T22:56:59.697Z,12.10
2022-09-15T23:02:03.029Z,12.18
2022-09-15T23:07:06.645Z,12.17
2022-09-15T23:12:10.160Z,12.14
2022-09-15T23:17:13.473Z,12.06
2022-09-15T23:22:16.785Z,11.99
2022-09-15T23:27:20.711Z,11.91
2022-09-15T23:32:24.143Z,11.81
2022-09-15T23:37:27.541Z,11.70
2022-09-15T23:42:30.855Z,11.64
2022-09-15T23:47:35.394Z,11.58
2022-09-15T23:52:38.702Z,11.55
2022-09-15T23:57:41.953Z,11.55
